createdAt,value
2022-08-03T00:01:36.685Z,9.47
2022-08-03T00:04:05.004Z,8.83
2022-08-03T00:06:36.794Z,10.10
2022-08-03T00:09:05.553Z,8.90
2022-08-03T00:11:32.563Z,9.80
2022-08-03T00:13:59.447Z,8.20
2022-08-03T00:16:26.443Z,9.30
2022-08-03T00:18:53.577Z,8.03
2022-08-03T00:21:20.568Z,9.27
2022-08-03T00:23:51.277Z,9.13
2022-08-03T00:26:20.798Z,9.20
2022-08-03T00:28:48.635Z,8.97
2022-08-03T00:31:15.880Z,9.40
2022-08-03T00:33:58.856Z,9.87
2022-08-03T00:36:27.681Z,10.33
2022-08-03T00:38:55.327Z,8.30
2022-08-03T00:41:22.340Z,9.53
2022-08-03T00:43:49.499Z,9.73
2022-08-03T00:46:21.382Z,8.60
2022-08-03T00:48:53.268Z,9.00
2022-08-03T00:51:24.075Z,9.93
2022-08-03T00:53:51.500Z,8.70
2022-08-03T00:56:19.188Z,8.03
2022-08-03T00:58:47.072Z,9.17
2022-08-03T01:01:15.905Z,9.17
2022-08-03T01:03:44.595Z,9.10
2022-08-03T01:06:18.904Z,8.10
2022-08-03T01:08:48.971Z,8.73
2022-08-03T01:11:30.588Z,10.07
2022-08-03T01:14:18.949Z,10.03
2022-08-03T01:17:00.149Z,9.63
2022-08-03T01:19:43.014Z,9.87
2022-08-03T01:22:24.914Z,11.27
2022-08-03T01:25:15.451Z,10.07
2022-08-03T01:28:14.409Z,10.40
2022-08-03T01:30:46.025Z,9.60
2022-08-03T01:33:18.990Z,8.97
2022-08-03T01:38:54.640Z,9.77
2022-08-03T01:41:30.830Z,9.73
2022-08-03T01:44:29.336Z,10.23
2022-08-03T01:46:54.403Z,9.57
2022-08-03T01:49:25.776Z,9.03
2022-08-03T01:52:03.635Z,10.40
2022-08-03T01:54:38.781Z,10.03
2022-08-03T01:57:07.017Z,10.10
2022-08-03T01:59:36.758Z,9.70
2022-08-03T02:02:31.937Z,9.50
2022-08-03T02:04:56.674Z,10.37
2022-08-03T02:07:25.618Z,9.63
2022-08-03T02:09:58.240Z,10.57
2022-08-03T02:12:28.166Z,9.10
2022-08-03T02:14:56.932Z,9.60
2022-08-03T02:17:39.647Z,10.60
2022-08-03T02:20:12.269Z,9.97
2022-08-03T02:22:44.577Z,10.87
2022-08-03T02:25:14.104Z,10.53
2022-08-03T02:27:49.100Z,10.80
2022-08-03T02:30:16.772Z,10.57
2022-08-03T02:32:55.588Z,10.47
2022-08-03T02:35:26.577Z,10.67
2022-08-03T02:37:58.791Z,11.83
2022-08-03T02:40:30.152Z,10.73
2022-08-03T02:43:00.855Z,12.00
2022-08-03T02:45:29.986Z,10.37
2022-08-03T02:48:01.469Z,10.63
2022-08-03T02:50:30.587Z,10.30
2022-08-03T02:52:59.851Z,9.23
2022-08-03T02:55:27.510Z,10.93
2022-08-03T02:57:57.156Z,11.47
2022-08-03T03:00:29.692Z,11.20
2022-08-03T03:03:01.514Z,10.77
2022-08-03T03:05:52.634Z,10.37
2022-08-03T03:08:25.803Z,11.20
2022-08-03T03:10:55.588Z,11.30
2022-08-03T03:13:23.964Z,11.53
2022-08-03T03:15:53.237Z,13.17
2022-08-03T03:18:22.836Z,11.87
2022-08-03T03:20:52.700Z,12.47
2022-08-03T03:23:22.093Z,11.90
2022-08-03T03:25:49.744Z,11.50
2022-08-03T03:28:17.116Z,12.93
2022-08-03T03:30:44.461Z,11.93
2022-08-03T03:33:19.395Z,11.20
2022-08-03T03:35:47.219Z,12.63
2022-08-03T03:38:14.283Z,12.20
2022-08-03T03:40:41.739Z,13.03
2022-08-03T03:43:10.926Z,12.50
2022-08-03T03:45:40.469Z,10.63
2022-08-03T03:48:08.383Z,11.70
2022-08-03T03:50:37.472Z,11.20
2022-08-03T03:53:04.981Z,12.40
2022-08-03T03:55:36.683Z,12.50
2022-08-03T03:58:24.885Z,13.00
2022-08-03T04:00:53.981Z,13.17
2022-08-03T04:03:21.340Z,14.60
2022-08-03T04:06:07.416Z,14.10
2022-08-03T04:08:52.829Z,13.20
2022-08-03T04:11:34.709Z,13.90
2022-08-03T04:14:35.853Z,14.60
2022-08-03T04:17:06.444Z,13.53
2022-08-03T04:19:38.717Z,13.03
2022-08-03T04:22:14.660Z,12.33
2022-08-03T04:24:46.886Z,13.67
2022-08-03T04:27:18.855Z,12.40
2022-08-03T04:29:48.803Z,12.73
2022-08-03T04:32:17.736Z,12.10
2022-08-03T04:34:45.422Z,11.70
2022-08-03T04:37:16.007Z,13.87
2022-08-03T04:39:45.034Z,13.00
2022-08-03T04:42:14.044Z,13.40
2022-08-03T04:44:45.612Z,11.63
2022-08-03T04:47:12.657Z,13.00
2022-08-03T04:49:40.772Z,12.13
2022-08-03T04:52:09.157Z,13.67
2022-08-03T04:54:50.359Z,12.00
2022-08-03T04:57:22.857Z,12.40
2022-08-03T05:00:01.299Z,13.50
2022-08-03T05:05:12.603Z,11.50
2022-08-03T05:13:04.791Z,12.80
2022-08-03T05:15:31.836Z,14.20
2022-08-03T05:17:58.905Z,14.10
2022-08-03T05:20:26.593Z,15.97
2022-08-03T05:22:53.796Z,15.80
2022-08-03T05:25:24.450Z,16.40
2022-08-03T05:27:54.218Z,15.33
2022-08-03T05:30:27.346Z,15.40
2022-08-03T05:33:00.652Z,16.70
2022-08-03T05:35:57.702Z,15.80
2022-08-03T05:38:20.860Z,14.67
2022-08-03T05:40:56.824Z,14.63
2022-08-03T05:43:26.606Z,15.30
2022-08-03T05:46:11.407Z,14.80
2022-08-03T05:48:40.171Z,14.17
2022-08-03T05:51:11.930Z,13.87
2022-08-03T05:53:40.530Z,13.90
2022-08-03T05:56:14.554Z,14.47
2022-08-03T05:58:52.819Z,13.53
2022-08-03T06:01:24.266Z,14.70
2022-08-03T06:03:52.542Z,16.77
2022-08-03T06:06:20.144Z,13.33
2022-08-03T06:08:49.091Z,13.30
2022-08-03T06:11:17.017Z,14.50
2022-08-03T06:13:44.284Z,13.20
2022-08-03T06:16:11.617Z,14.80
2022-08-03T06:18:38.983Z,12.40
2022-08-03T06:21:14.978Z,13.53
2022-08-03T06:23:53.062Z,13.50
2022-08-03T06:26:22.796Z,13.33
2022-08-03T06:28:51.935Z,15.23
2022-08-03T06:31:21.562Z,12.73
2022-08-03T06:34:32.155Z,13.97
2022-08-03T06:36:37.565Z,14.07
2022-08-03T06:39:06.072Z,14.90
2022-08-03T06:41:38.139Z,13.73
2022-08-03T06:44:12.135Z,12.97
2022-08-03T06:46:43.102Z,14.13
2022-08-03T06:49:10.178Z,12.47
2022-08-03T06:52:05.624Z,13.77
2022-08-03T06:54:24.807Z,13.83
2022-08-03T06:56:54.329Z,10.90
2022-08-03T07:00:10.769Z,13.17
2022-08-03T07:02:10.186Z,12.53
2022-08-03T07:04:37.544Z,11.60
2022-08-03T07:07:04.592Z,11.17
2022-08-03T07:09:32.317Z,11.07
2022-08-03T07:12:00.769Z,12.40
2022-08-03T07:14:28.303Z,11.07
2022-08-03T07:16:57.383Z,12.20
2022-08-03T07:19:24.504Z,12.07
2022-08-03T07:21:51.764Z,11.53
2022-08-03T07:24:21.674Z,12.00
2022-08-03T07:29:29.946Z,11.97
2022-08-03T07:32:03.546Z,12.37
2022-08-03T07:34:31.033Z,11.50
2022-08-03T07:36:58.375Z,12.47
2022-08-03T07:39:25.690Z,12.27
2022-08-03T07:41:53.000Z,12.90
2022-08-03T07:44:20.044Z,12.07
2022-08-03T07:46:48.069Z,12.43
2022-08-03T07:49:15.583Z,12.57
2022-08-03T07:51:45.857Z,12.70
2022-08-03T07:54:14.372Z,12.70
2022-08-03T07:56:42.172Z,10.57
2022-08-03T07:59:09.564Z,11.73
2022-08-03T08:01:38.577Z,12.80
2022-08-03T08:04:06.272Z,11.83
2022-08-03T08:06:34.202Z,12.00
2022-08-03T08:09:02.789Z,9.57
2022-08-03T08:11:29.987Z,11.07
2022-08-03T08:13:59.971Z,9.90
2022-08-03T08:16:27.902Z,8.53
2022-08-03T08:18:55.393Z,8.50
2022-08-03T08:21:23.118Z,9.50
2022-08-03T08:23:57.099Z,9.93
2022-08-03T08:26:24.947Z,7.50
2022-08-03T08:28:52.800Z,7.63
2022-08-03T08:31:19.772Z,9.13
2022-08-03T08:34:03.978Z,8.80
2022-08-03T08:36:35.031Z,7.73
2022-08-03T08:39:02.235Z,6.27
2022-08-03T08:41:32.106Z,6.37
2022-08-03T08:44:00.229Z,7.00
2022-08-03T08:46:29.804Z,6.80
2022-08-03T08:48:57.700Z,6.03
2022-08-03T08:51:54.915Z,6.17
2022-08-03T08:54:20.820Z,6.97
2022-08-03T08:56:52.703Z,7.17
2022-08-03T08:59:21.724Z,6.37
2022-08-03T09:01:48.718Z,7.17
2022-08-03T09:04:15.988Z,6.27
2022-08-03T09:06:50.311Z,6.70
2022-08-03T09:10:12.290Z,5.90
2022-08-03T09:12:38.822Z,6.30
2022-08-03T09:15:17.559Z,6.17
2022-08-03T09:17:47.656Z,5.60
2022-08-03T09:20:18.067Z,5.33
2022-08-03T09:22:58.981Z,5.20
2022-08-03T09:25:34.479Z,4.60
2022-08-03T09:28:06.426Z,4.83
2022-08-03T09:30:35.249Z,5.30
2022-08-03T09:33:08.397Z,5.87
2022-08-03T09:35:54.977Z,5.33
2022-08-03T09:38:28.563Z,4.83
2022-08-03T09:40:59.888Z,4.87
2022-08-03T09:43:28.215Z,4.70
2022-08-03T09:46:07.745Z,4.10
2022-08-03T09:48:35.577Z,4.03
2022-08-03T09:51:13.498Z,4.33
2022-08-03T09:53:58.904Z,4.37
2022-08-03T09:56:42.160Z,4.87
2022-08-03T09:59:10.573Z,4.33
2022-08-03T10:01:41.590Z,4.20
2022-08-03T10:04:14.698Z,4.40
2022-08-03T10:06:41.690Z,4.27
2022-08-03T10:09:14.438Z,3.60
2022-08-03T10:11:43.251Z,4.10
2022-08-03T10:14:22.624Z,5.10
2022-08-03T10:16:50.178Z,4.43
2022-08-03T10:19:17.574Z,5.00
2022-08-03T10:21:51.400Z,4.90
2022-08-03T10:24:27.306Z,4.53
2022-08-03T10:27:01.541Z,4.30
2022-08-03T10:29:29.776Z,4.53
2022-08-03T10:31:59.837Z,4.13
2022-08-03T10:34:31.971Z,4.70
2022-08-03T10:37:02.267Z,4.27
2022-08-03T10:39:30.740Z,4.70
2022-08-03T10:41:58.922Z,3.93
2022-08-03T10:44:37.504Z,4.80
2022-08-03T10:47:05.089Z,4.47
2022-08-03T10:49:34.770Z,4.03
2022-08-03T10:52:13.732Z,3.90
2022-08-03T10:55:10.794Z,3.60
2022-08-03T10:57:46.482Z,4.00
2022-08-03T11:00:24.489Z,3.83
2022-08-03T11:03:08.973Z,3.27
2022-08-03T11:05:49.510Z,3.07
2022-08-03T11:08:30.528Z,3.60
2022-08-03T11:11:19.431Z,3.30
2022-08-03T11:14:05.940Z,3.37
2022-08-03T11:16:35.690Z,3.63
2022-08-03T11:19:04.944Z,3.77
2022-08-03T11:21:50.102Z,3.87
2022-08-03T11:24:43.669Z,4.47
2022-08-03T11:27:22.921Z,4.20
2022-08-03T11:30:03.290Z,5.00
2022-08-03T11:32:46.786Z,4.43
2022-08-03T11:35:15.374Z,4.00
2022-08-03T11:38:03.263Z,4.20
2022-08-03T11:40:54.529Z,3.70
2022-08-03T11:43:31.199Z,3.97
2022-08-03T11:46:03.087Z,4.77
2022-08-03T11:48:44.032Z,4.43
2022-08-03T11:51:25.799Z,4.57
2022-08-03T11:53:59.765Z,4.37
2022-08-03T11:56:28.544Z,4.17
2022-08-03T11:59:20.650Z,4.87
2022-08-03T12:01:46.846Z,4.43
2022-08-03T12:04:13.792Z,5.00
2022-08-03T12:06:56.207Z,4.00
2022-08-03T12:09:23.066Z,4.47
2022-08-03T12:12:00.476Z,4.10
2022-08-03T12:14:50.728Z,5.77
2022-08-03T12:17:17.121Z,3.93
2022-08-03T12:19:44.972Z,4.23
2022-08-03T12:22:11.934Z,4.70
2022-08-03T12:24:47.602Z,4.20
2022-08-03T12:27:25.389Z,4.37
2022-08-03T12:29:58.990Z,4.57
2022-08-03T12:32:27.504Z,3.67
2022-08-03T12:34:55.644Z,4.30
2022-08-03T12:37:23.715Z,4.13
2022-08-03T12:40:01.699Z,3.70
2022-08-03T12:42:37.826Z,4.70
2022-08-03T12:45:25.684Z,3.97
2022-08-03T12:47:57.857Z,3.20
2022-08-03T12:50:27.280Z,4.30
2022-08-03T12:52:55.405Z,3.83
2022-08-03T12:55:24.100Z,4.07
2022-08-03T12:57:51.046Z,4.77
2022-08-03T13:00:29.458Z,4.07
2022-08-03T13:03:38.608Z,3.90
2022-08-03T13:05:48.845Z,4.07
2022-08-03T13:08:24.044Z,3.90
2022-08-03T13:10:51.605Z,3.87
2022-08-03T13:13:20.818Z,4.40
2022-08-03T13:15:48.399Z,3.80
2022-08-03T13:18:17.383Z,3.67
2022-08-03T13:20:44.578Z,3.90
2022-08-03T13:23:15.395Z,3.80
2022-08-03T13:25:55.681Z,4.03
2022-08-03T13:28:23.911Z,3.43
2022-08-03T13:30:51.060Z,3.30
2022-08-03T13:33:18.577Z,4.17
2022-08-03T13:35:45.603Z,3.97
2022-08-03T13:38:12.571Z,4.10
2022-08-03T13:40:42.361Z,4.10
2022-08-03T13:43:09.456Z,3.57
2022-08-03T13:45:36.402Z,3.60
2022-08-03T13:48:03.309Z,3.73
2022-08-03T13:50:31.398Z,3.90
2022-08-03T13:52:58.316Z,3.17
2022-08-03T13:55:25.877Z,3.93
2022-08-03T13:58:18.928Z,3.80
2022-08-03T14:00:40.099Z,3.60
2022-08-03T14:03:14.067Z,3.53
2022-08-03T14:05:45.239Z,3.70
2022-08-03T14:08:12.494Z,3.53
2022-08-03T14:10:43.138Z,3.50
2022-08-03T14:13:12.264Z,3.30
2022-08-03T14:15:39.216Z,4.00
2022-08-03T14:18:12.636Z,4.00
2022-08-03T14:20:48.759Z,4.10
2022-08-03T14:23:19.005Z,3.80
2022-08-03T14:25:52.491Z,4.80
2022-08-03T14:28:22.783Z,3.63
2022-08-03T14:30:51.221Z,3.17
2022-08-03T14:33:18.138Z,3.50
2022-08-03T14:35:45.162Z,3.37
2022-08-03T14:38:12.033Z,3.50
2022-08-03T14:40:38.926Z,3.20
2022-08-03T14:43:05.902Z,3.20
2022-08-03T14:45:32.772Z,3.30
2022-08-03T14:50:32.161Z,3.40
2022-08-03T14:50:50.962Z,3.90
2022-08-03T14:53:19.689Z,3.60
2022-08-03T14:55:50.860Z,3.17
2022-08-03T14:58:22.528Z,3.93
2022-08-03T15:00:51.249Z,3.17
2022-08-03T15:03:23.328Z,3.40
2022-08-03T15:05:52.019Z,3.30
2022-08-03T15:08:20.083Z,3.67
2022-08-03T15:10:47.097Z,3.40
2022-08-03T15:13:16.957Z,3.40
2022-08-03T15:15:43.930Z,4.07
2022-08-03T15:18:11.218Z,3.80
2022-08-03T15:20:46.978Z,3.70
2022-08-03T15:23:15.503Z,4.73
2022-08-03T15:26:32.174Z,3.53
2022-08-03T15:28:31.123Z,2.97
2022-08-03T15:30:58.156Z,3.43
2022-08-03T15:33:25.167Z,3.50
2022-08-03T15:35:53.083Z,3.20
2022-08-03T15:38:26.089Z,3.20
2022-08-03T15:40:54.861Z,3.20
2022-08-03T15:43:23.114Z,4.07
2022-08-03T15:46:06.831Z,4.10
2022-08-03T15:48:36.985Z,4.40
2022-08-03T15:51:05.263Z,4.07
2022-08-03T15:53:33.341Z,3.90
2022-08-03T15:56:00.756Z,3.77
2022-08-03T15:59:07.604Z,4.30
2022-08-03T16:01:19.794Z,3.90
2022-08-03T16:03:47.122Z,4.60
2022-08-03T16:06:14.187Z,3.43
2022-08-03T16:08:41.070Z,3.57
2022-08-03T16:11:08.431Z,3.77
2022-08-03T16:14:13.655Z,3.70
2022-08-03T16:16:22.318Z,4.20
2022-08-03T16:18:49.202Z,4.30
2022-08-03T16:21:19.334Z,4.30
2022-08-03T16:23:47.360Z,4.60
2022-08-03T16:26:14.639Z,4.07
2022-08-03T16:28:41.580Z,3.63
2022-08-03T16:31:09.230Z,3.20
2022-08-03T16:33:36.508Z,3.47
2022-08-03T16:36:03.669Z,3.40
2022-08-03T16:38:31.283Z,3.67
2022-08-03T16:40:58.240Z,3.77
2022-08-03T16:43:25.332Z,4.00
2022-08-03T16:45:53.507Z,4.00
2022-08-03T16:48:20.512Z,3.83
2022-08-03T16:50:47.806Z,3.87
2022-08-03T16:53:16.353Z,4.00
2022-08-03T16:55:52.341Z,4.10
2022-08-03T16:58:41.624Z,3.67
2022-08-03T17:01:20.808Z,4.13
2022-08-03T17:04:02.340Z,4.23
2022-08-03T17:06:34.984Z,4.73
2022-08-03T17:09:08.723Z,3.80
2022-08-03T17:11:37.599Z,4.30
2022-08-03T17:14:09.467Z,3.80
2022-08-03T17:16:38.484Z,4.30
2022-08-03T17:19:07.318Z,4.00
2022-08-03T17:21:39.654Z,4.23
2022-08-03T17:24:32.946Z,4.90
2022-08-03T17:27:09.246Z,4.20
2022-08-03T17:29:56.776Z,5.23
2022-08-03T17:32:23.845Z,4.93
2022-08-03T17:34:51.321Z,4.30
2022-08-03T17:37:50.051Z,5.00
2022-08-03T17:40:17.970Z,4.80
2022-08-03T17:42:50.745Z,4.57
2022-08-03T17:45:18.875Z,5.40
2022-08-03T17:47:56.980Z,4.37
2022-08-03T17:50:32.957Z,5.70
2022-08-03T17:53:15.500Z,5.93
2022-08-03T17:56:40.770Z,5.43
2022-08-03T17:59:09.194Z,4.90
2022-08-03T18:02:18.520Z,4.63
2022-08-03T18:05:16.809Z,4.97
2022-08-03T18:07:59.322Z,5.33
2022-08-03T18:10:34.373Z,5.20
2022-08-03T18:13:10.513Z,5.00
2022-08-03T18:15:46.867Z,5.80
2022-08-03T18:18:32.454Z,6.10
2022-08-03T18:21:06.787Z,5.00
2022-08-03T18:23:37.805Z,4.63
2022-08-03T18:26:12.194Z,4.80
2022-08-03T18:28:40.632Z,4.57
2022-08-03T18:31:11.569Z,5.17
2022-08-03T18:34:18.572Z,4.63
2022-08-03T18:36:30.081Z,4.77
2022-08-03T18:39:03.061Z,4.27
2022-08-03T18:41:34.998Z,5.13
2022-08-03T18:44:06.674Z,4.50
2022-08-03T18:46:50.502Z,5.27
2022-08-03T18:49:38.125Z,4.63
2022-08-03T18:52:15.083Z,5.20
2022-08-03T18:55:19.912Z,5.90
2022-08-03T18:58:17.826Z,5.23
2022-08-03T19:01:03.426Z,5.40
2022-08-03T19:06:26.571Z,5.43
2022-08-03T19:09:04.099Z,4.60
2022-08-03T19:12:14.476Z,5.30
2022-08-03T19:14:43.380Z,6.10
2022-08-03T19:17:13.265Z,5.53
2022-08-03T19:19:45.041Z,4.80
2022-08-03T19:22:16.145Z,5.03
2022-08-03T19:24:46.158Z,6.40
2022-08-03T19:27:14.174Z,4.80
2022-08-03T19:29:58.988Z,5.10
2022-08-03T19:32:32.448Z,5.97
2022-08-03T19:35:02.713Z,6.33
2022-08-03T19:40:19.784Z,5.13
2022-08-03T19:42:49.462Z,5.37
2022-08-03T19:46:04.734Z,5.20
2022-08-03T19:48:14.829Z,5.77
2022-08-03T19:50:44.711Z,5.40
2022-08-03T19:53:13.382Z,5.00
2022-08-03T19:55:48.835Z,4.87
2022-08-03T19:58:24.483Z,5.40
2022-08-03T20:00:55.941Z,6.63
2022-08-03T20:03:23.441Z,5.90
2022-08-03T20:05:54.150Z,5.13
2022-08-03T20:08:22.657Z,6.30
2022-08-03T20:10:51.417Z,6.17
2022-08-03T20:13:20.024Z,6.30
2022-08-03T20:15:47.690Z,5.43
2022-08-03T20:18:20.402Z,7.27
2022-08-03T20:20:52.211Z,5.90
2022-08-03T20:23:20.273Z,5.50
2022-08-03T20:25:58.490Z,6.30
2022-08-03T20:28:50.103Z,5.90
2022-08-03T20:31:18.566Z,5.30
2022-08-03T20:33:46.556Z,5.83
2022-08-03T20:36:17.890Z,6.17
2022-08-03T20:38:47.382Z,5.93
2022-08-03T20:41:16.567Z,5.63
2022-08-03T20:43:43.882Z,6.23
2022-08-03T20:46:31.963Z,5.83
2022-08-03T20:48:58.904Z,6.33
2022-08-03T20:51:49.141Z,6.17
2022-08-03T20:54:22.807Z,7.03
2022-08-03T20:56:58.312Z,7.73
2022-08-03T21:02:19.556Z,5.70
2022-08-03T21:04:56.326Z,6.03
2022-08-03T21:08:03.839Z,6.10
2022-08-03T21:10:15.744Z,7.10
2022-08-03T21:13:01.259Z,5.60
2022-08-03T21:13:07.828Z,6.27
2022-08-03T21:13:10.648Z,5.33
2022-08-03T21:13:16.149Z,6.77
2022-08-03T21:16:02.314Z,6.20
2022-08-03T21:18:45.677Z,6.20
2022-08-03T21:21:15.653Z,5.80
2022-08-03T21:23:48.719Z,6.10
2022-08-03T21:26:20.574Z,5.47
2022-08-03T21:28:52.876Z,5.77
2022-08-03T21:31:25.090Z,6.10
2022-08-03T21:33:58.509Z,6.30
2022-08-03T21:36:27.790Z,5.00
2022-08-03T21:38:59.251Z,6.07
2022-08-03T21:41:29.113Z,5.63
2022-08-03T21:43:56.371Z,4.97
2022-08-03T21:46:23.813Z,4.90
2022-08-03T21:50:06.776Z,5.47
2022-08-03T21:51:52.396Z,4.60
2022-08-03T21:54:21.838Z,4.70
2022-08-03T21:56:51.296Z,4.80
2022-08-03T21:59:20.403Z,4.97
2022-08-03T22:01:51.477Z,4.60
2022-08-03T22:04:54.949Z,4.20
2022-08-03T22:07:10.304Z,4.70
2022-08-03T22:09:37.510Z,4.17
2022-08-03T22:12:05.077Z,4.67
2022-08-03T22:14:35.113Z,4.90
2022-08-03T22:17:06.268Z,5.00
2022-08-03T22:19:33.588Z,4.40
2022-08-03T22:22:06.184Z,4.50
2022-08-03T22:24:36.075Z,4.53
2022-08-03T22:27:22.079Z,4.70
2022-08-03T22:29:50.378Z,5.10
2022-08-03T22:32:17.417Z,6.00
2022-08-03T22:34:46.483Z,5.00
2022-08-03T22:37:16.714Z,5.27
2022-08-03T22:39:44.226Z,5.80
2022-08-03T22:42:11.653Z,4.93
2022-08-03T22:44:39.035Z,5.37
2022-08-03T22:50:56.810Z,5.00
2022-08-03T22:53:23.777Z,5.53
2022-08-03T22:55:51.941Z,4.50
2022-08-03T22:58:21.377Z,5.83
2022-08-03T23:00:54.371Z,5.80
2022-08-03T23:03:59.319Z,5.50
2022-08-03T23:06:14.820Z,5.00
2022-08-03T23:08:46.160Z,5.27
2022-08-03T23:11:14.440Z,5.70
2022-08-03T23:13:41.795Z,5.13
2022-08-03T23:16:09.639Z,5.57
2022-08-03T23:18:39.617Z,5.57
2022-08-03T23:21:11.621Z,4.90
2022-08-03T23:23:44.172Z,5.50
2022-08-03T23:26:13.436Z,6.00
2022-08-03T23:28:42.173Z,5.10
2022-08-03T23:31:09.686Z,5.77
2022-08-03T23:33:40.881Z,5.70
2022-08-03T23:36:31.187Z,5.40
2022-08-03T23:38:56.283Z,6.27
2022-08-03T23:41:23.760Z,6.87
2022-08-03T23:43:54.069Z,5.47
2022-08-03T23:46:25.997Z,5.60
2022-08-03T23:48:53.893Z,4.97
2022-08-03T23:51:52.421Z,5.33
2022-08-03T23:54:34.093Z,6.13
2022-08-03T23:57:12.652Z,5.70
